sensor_id;sensor_type;location;lat;lon;timestamp;pressure;altitude;pressure_sealevel;temperature;humidity
9750;BME280;4914;43.218;27.908;2023-01-28T00:00:36;100042.44;;;4.25;100.00
9750;BME280;4914;43.218;27.908;2023-01-28T00:03:03;100045.13;;;4.24;100.00
9750;BME280;4914;43.218;27.908;2023-01-28T00:05:31;100037.91;;;4.13;100.00
9750;BME280;4914;43.218;27.908;2023-01-28T00:07:58;100043.16;;;4.13;100.00
9750;BME280;4914;43.218;27.908;2023-01-28T00:10:25;100043.16;;;4.13;100.00
9750;BME280;4914;43.218;27.908;2023-01-28T00:12:52;100038.47;;;4.18;100.00
9750;BME280;4914;43.218;27.908;2023-01-28T00:15:18;100042.78;;;4.19;100.00
9750;BME280;4914;43.218;27.908;2023-01-28T00:17:45;100042.59;;;4.22;100.00
9750;BME280;4914;43.218;27.908;2023-01-28T00:20:12;100056.22;;;4.29;100.00
9750;BME280;4914;43.218;27.908;2023-01-28T00:22:45;100056.13;;;4.30;100.00
9750;BME280;4914;43.218;27.908;2023-01-28T00:25:13;100047.69;;;4.25;100.00
9750;BME280;4914;43.218;27.908;2023-01-28T00:27:39;100052.47;;;4.33;100.00
9750;BME280;4914;43.218;27.908;2023-01-28T00:30:08;100060.06;;;4.37;100.00
9750;BME280;4914;43.218;27.908;2023-01-28T00:32:34;100061.69;;;4.40;100.00
9750;BME280;4914;43.218;27.908;2023-01-28T00:35:01;100063.53;;;4.38;100.00
9750;BME280;4914;43.218;27.908;2023-01-28T00:37:28;100063.81;;;4.33;100.00
9750;BME280;4914;43.218;27.908;2023-01-28T00:39:56;100048.34;;;4.57;100.00
9750;BME280;4914;43.218;27.908;2023-01-28T00:42:23;100053.88;;;4.67;100.00
9750;BME280;4914;43.218;27.908;2023-01-28T00:44:50;100057.66;;;4.63;100.00
9750;BME280;4914;43.218;27.908;2023-01-28T00:47:17;100063.56;;;4.52;100.00
9750;BME280;4914;43.218;27.908;2023-01-28T00:49:44;100046.19;;;4.50;100.00
9750;BME280;4914;43.218;27.908;2023-01-28T00:52:10;100064.03;;;4.45;100.00
9750;BME280;4914;43.218;27.908;2023-01-28T00:54:37;100062.53;;;4.41;100.00
9750;BME280;4914;43.218;27.908;2023-01-28T00:57:05;100067.78;;;4.41;100.00
9750;BME280;4914;43.218;27.908;2023-01-28T00:59:32;100066.81;;;4.42;100.00
9750;BME280;4914;43.218;27.908;2023-01-28T01:01:59;100080.53;;;4.32;100.00
9750;BME280;4914;43.218;27.908;2023-01-28T01:04:36;100072.91;;;4.28;100.00
9750;BME280;4914;43.218;27.908;2023-01-28T01:07:03;100089.53;;;4.28;100.00
9750;BME280;4914;43.218;27.908;2023-01-28T01:09:30;100083.91;;;4.20;100.00
9750;BME280;4914;43.218;27.908;2023-01-28T01:11:57;100084.63;;;4.22;100.00
9750;BME280;4914;43.218;27.908;2023-01-28T01:14:25;100090.63;;;4.10;100.00
9750;BME280;4914;43.218;27.908;2023-01-28T01:16:52;100094.03;;;4.12;100.00
9750;BME280;4914;43.218;27.908;2023-01-28T01:19:19;100086.22;;;4.11;100.00
9750;BME280;4914;43.218;27.908;2023-01-28T01:21:46;100083.50;;;4.12;100.00
9750;BME280;4914;43.218;27.908;2023-01-28T01:24:15;100083.88;;;4.06;100.00
9750;BME280;4914;43.218;27.908;2023-01-28T01:26:41;100089.78;;;4.10;100.00
9750;BME280;4914;43.218;27.908;2023-01-28T01:29:08;100092.31;;;4.11;100.00
9750;BME280;4914;43.218;27.908;2023-01-28T01:31:37;100097.00;;;4.06;100.00
9750;BME280;4914;43.218;27.908;2023-01-28T01:34:04;100092.69;;;4.05;100.00
9750;BME280;4914;43.218;27.908;2023-01-28T01:36:31;100100.88;;;4.15;100.00
9750;BME280;4914;43.218;27.908;2023-01-28T01:38:57;100101.97;;;4.11;100.00
9750;BME280;4914;43.218;27.908;2023-01-28T01:41:27;100111.25;;;4.02;100.00
9750;BME280;4914;43.218;27.908;2023-01-28T01:43:56;100115.53;;;4.03;100.00
9750;BME280;4914;43.218;27.908;2023-01-28T01:46:29;100114.72;;;4.03;100.00
9750;BME280;4914;43.218;27.908;2023-01-28T01:49:05;100118.13;;;3.89;100.00
9750;BME280;4914;43.218;27.908;2023-01-28T01:51:34;100134.91;;;4.02;100.00
9750;BME280;4914;43.218;27.908;2023-01-28T01:54:02;100125.97;;;4.05;100.00
9750;BME280;4914;43.218;27.908;2023-01-28T01:56:37;100127.44;;;3.94;100.00
9750;BME280;4914;43.218;27.908;2023-01-28T01:59:09;100137.47;;;3.88;100.00
9750;BME280;4914;43.218;27.908;2023-01-28T02:01:37;100129.34;;;3.77;100.00
9750;BME280;4914;43.218;27.908;2023-01-28T02:04:08;100137.53;;;3.86;100.00
9750;BME280;4914;43.218;27.908;2023-01-28T02:06:36;100143.75;;;3.70;100.00
9750;BME280;4914;43.218;27.908;2023-01-28T02:09:18;100138.34;;;3.73;100.00
9750;BME280;4914;43.218;27.908;2023-01-28T02:11:47;100142.22;;;3.66;100.00
9750;BME280;4914;43.218;27.908;2023-01-28T02:14:14;100143.16;;;3.65;100.00
9750;BME280;4914;43.218;27.908;2023-01-28T02:16:41;100138.34;;;3.73;100.00
9750;BME280;4914;43.218;27.908;2023-01-28T02:19:11;100155.25;;;3.83;100.00
9750;BME280;4914;43.218;27.908;2023-01-28T02:22:02;100163.53;;;3.91;100.00
9750;BME280;4914;43.218;27.908;2023-01-28T02:27:35;100163.41;;;3.63;100.00
9750;BME280;4914;43.218;27.908;2023-01-28T02:30:10;100165.63;;;3.55;100.00
9750;BME280;4914;43.218;27.908;2023-01-28T02:32:43;100160.78;;;3.63;100.00
9750;BME280;4914;43.218;27.908;2023-01-28T02:35:14;100162.72;;;3.43;100.00
9750;BME280;4914;43.218;27.908;2023-01-28T02:37:46;100176.28;;;3.51;100.00
9750;BME280;4914;43.218;27.908;2023-01-28T02:40:21;100183.81;;;3.58;100.00
9750;BME280;4914;43.218;27.908;2023-01-28T02:42:52;100179.81;;;3.50;100.00
9750;BME280;4914;43.218;27.908;2023-01-28T02:45:23;100183.22;;;3.53;100.00
9750;BME280;4914;43.218;27.908;2023-01-28T02:48:11;100188.47;;;3.53;100.00
9750;BME280;4914;43.218;27.908;2023-01-28T02:50:48;100191.78;;;3.72;100.00
9750;BME280;4914;43.218;27.908;2023-01-28T02:53:21;100191.28;;;3.49;100.00
9750;BME280;4914;43.218;27.908;2023-01-28T02:56:16;100202.13;;;3.26;100.00
9750;BME280;4914;43.218;27.908;2023-01-28T02:58:50;100201.16;;;3.29;100.00
9750;BME280;4914;43.218;27.908;2023-01-28T03:01:25;100202.50;;;3.20;100.00
9750;BME280;4914;43.218;27.908;2023-01-28T03:03:57;100203.78;;;3.29;100.00
9750;BME280;4914;43.218;27.908;2023-01-28T03:06:30;100200.28;;;3.28;100.00
9750;BME280;4914;43.218;27.908;2023-01-28T03:09:02;100203.16;;;3.24;100.00
9750;BME280;4914;43.218;27.908;2023-01-28T03:11:52;100196.03;;;3.10;100.00
9750;BME280;4914;43.218;27.908;2023-01-28T03:14:39;100208.72;;;3.02;100.00
9750;BME280;4914;43.218;27.908;2023-01-28T03:17:29;100209.53;;;3.02;100.00
9750;BME280;4914;43.218;27.908;2023-01-28T03:20:15;100209.03;;;2.96;100.00
9750;BME280;4914;43.218;27.908;2023-01-28T03:23:11;100210.75;;;2.80;100.00
9750;BME280;4914;43.218;27.908;2023-01-28T03:25:59;100208.19;;;2.78;100.00
9750;BME280;4914;43.218;27.908;2023-01-28T03:28:45;100211.66;;;2.79;100.00
9750;BME280;4914;43.218;27.908;2023-01-28T03:31:32;100205.75;;;2.75;100.00
9750;BME280;4914;43.218;27.908;2023-01-28T03:34:20;100210.91;;;2.77;100.00
9750;BME280;4914;43.218;27.908;2023-01-28T03:37:05;100203.16;;;2.58;100.00
9750;BME280;4914;43.218;27.908;2023-01-28T03:39:33;100222.50;;;2.73;100.00
9750;BME280;4914;43.218;27.908;2023-01-28T03:42:02;100219.72;;;2.58;100.00
9750;BME280;4914;43.218;27.908;2023-01-28T03:44:31;100220.41;;;2.62;100.00
9750;BME280;4914;43.218;27.908;2023-01-28T03:47:17;100221.56;;;2.56;100.00
9750;BME280;4914;43.218;27.908;2023-01-28T03:49:46;100227.09;;;2.50;100.00
9750;BME280;4914;43.218;27.908;2023-01-28T03:52:15;100226.88;;;2.55;100.00
9750;BME280;4914;43.218;27.908;2023-01-28T03:54:43;100228.78;;;2.69;100.00
9750;BME280;4914;43.218;27.908;2023-01-28T03:57:12;100225.19;;;2.54;100.00
9750;BME280;4914;43.218;27.908;2023-01-28T03:59:39;100237.59;;;2.50;100.00
9750;BME280;4914;43.218;27.908;2023-01-28T04:02:07;100237.75;;;2.47;100.00
9750;BME280;4914;43.218;27.908;2023-01-28T04:04:35;100246.53;;;2.63;100.00
9750;BME280;4914;43.218;27.908;2023-01-28T04:07:06;100246.69;;;2.43;100.00
9750;BME280;4914;43.218;27.908;2023-01-28T04:09:33;100241.06;;;2.51;100.00
9750;BME280;4914;43.218;27.908;2023-01-28T04:12:00;100242.88;;;2.32;100.00
9750;BME280;4914;43.218;27.908;2023-01-28T04:14:27;100247.28;;;2.31;100.00
9750;BME280;4914;43.218;27.908;2023-01-28T04:16:54;100249.31;;;2.60;100.00
9750;BME280;4914;43.218;27.908;2023-01-28T04:19:22;100245.59;;;2.64;100.00
9750;BME280;4914;43.218;27.908;2023-01-28T04:21:49;100250.31;;;2.58;100.00
9750;BME280;4914;43.218;27.908;2023-01-28T04:24:20;100253.16;;;2.53;100.00
9750;BME280;4914;43.218;27.908;2023-01-28T04:26:47;100250.22;;;2.42;100.00
9750;BME280;4914;43.218;27.908;2023-01-28T04:29:13;100258.25;;;2.39;100.00
9750;BME280;4914;43.218;27.908;2023-01-28T04:31:40;100260.41;;;2.48;100.00
9750;BME280;4914;43.218;27.908;2023-01-28T04:34:07;100262.53;;;2.40;100.00
9750;BME280;4914;43.218;27.908;2023-01-28T04:36:34;100264.25;;;2.41;100.00
9750;BME280;4914;43.218;27.908;2023-01-28T04:39:01;100259.47;;;2.32;100.00
9750;BME280;4914;43.218;27.908;2023-01-28T04:41:30;100259.16;;;2.38;100.00
9750;BME280;4914;43.218;27.908;2023-01-28T04:43:57;100257.75;;;2.31;100.00
9750;BME280;4914;43.218;27.908;2023-01-28T04:46:24;100262.31;;;2.45;100.00
9750;BME280;4914;43.218;27.908;2023-01-28T04:48:50;100265.09;;;2.42;100.00
9750;BME280;4914;43.218;27.908;2023-01-28T04:51:17;100262.06;;;2.32;100.00
9750;BME280;4914;43.218;27.908;2023-01-28T04:53:44;100254.06;;;2.35;100.00
9750;BME280;4914;43.218;27.908;2023-01-28T04:56:11;100251.94;;;2.43;100.00
9750;BME280;4914;43.218;27.908;2023-01-28T04:58:39;100261.38;;;2.29;100.00
9750;BME280;4914;43.218;27.908;2023-01-28T05:01:06;100255.91;;;2.33;100.00
9750;BME280;4914;43.218;27.908;2023-01-28T05:03:33;100268.00;;;2.18;100.00
9750;BME280;4914;43.218;27.908;2023-01-28T05:06:00;100263.59;;;2.19;100.00
9750;BME280;4914;43.218;27.908;2023-01-28T05:08:27;100263.31;;;2.25;100.00
9750;BME280;4914;43.218;27.908;2023-01-28T05:10:54;100279.84;;;2.26;100.00
9750;BME280;4914;43.218;27.908;2023-01-28T05:13:21;100263.59;;;2.19;100.00
9750;BME280;4914;43.218;27.908;2023-01-28T05:15:52;100280.69;;;2.09;100.00
9750;BME280;4914;43.218;27.908;2023-01-28T05:18:19;100280.78;;;2.25;100.00
9750;BME280;4914;43.218;27.908;2023-01-28T05:20:46;100282.56;;;2.24;100.00
9750;BME280;4914;43.218;27.908;2023-01-28T05:23:13;100288.53;;;2.09;100.00
9750;BME280;4914;43.218;27.908;2023-01-28T05:25:40;100281.75;;;2.05;100.00
9750;BME280;4914;43.218;27.908;2023-01-28T05:28:07;100276.56;;;2.03;100.00
9750;BME280;4914;43.218;27.908;2023-01-28T05:30:34;100285.97;;;2.07;100.00
9750;BME280;4914;43.218;27.908;2023-01-28T05:33:02;100286.19;;;2.03;100.00
9750;BME280;4914;43.218;27.908;2023-01-28T05:35:29;100294.84;;;2.05;100.00
9750;BME280;4914;43.218;27.908;2023-01-28T05:37:56;100295.53;;;2.08;100.00
9750;BME280;4914;43.218;27.908;2023-01-28T05:40:22;100296.16;;;2.13;100.00
9750;BME280;4914;43.218;27.908;2023-01-28T05:42:49;100292.06;;;2.08;100.00
9750;BME280;4914;43.218;27.908;2023-01-28T05:45:16;100307.78;;;2.08;100.00
9750;BME280;4914;43.218;27.908;2023-01-28T05:47:43;100300.72;;;2.10;100.00
9750;BME280;4914;43.218;27.908;2023-01-28T05:50:12;100302.53;;;2.08;100.00
9750;BME280;4914;43.218;27.908;2023-01-28T05:52:40;100306.22;;;2.04;100.00
9750;BME280;4914;43.218;27.908;2023-01-28T05:55:08;100318.25;;;2.08;100.00
9750;BME280;4914;43.218;27.908;2023-01-28T05:57:35;100318.53;;;2.02;100.00
9750;BME280;4914;43.218;27.908;2023-01-28T06:00:03;100313.16;;;2.05;100.00
9750;BME280;4914;43.218;27.908;2023-01-28T06:02:30;100322.19;;;2.16;100.00
9750;BME280;4914;43.218;27.908;2023-01-28T06:04:57;100330.44;;;2.09;100.00
9750;BME280;4914;43.218;27.908;2023-01-28T06:07:25;100335.81;;;2.06;100.00
9750;BME280;4914;43.218;27.908;2023-01-28T06:09:52;100343.47;;;2.10;100.00
9750;BME280;4914;43.218;27.908;2023-01-28T06:12:19;100338.13;;;2.12;100.00
9750;BME280;4914;43.218;27.908;2023-01-28T06:14:46;100343.50;;;2.09;100.00
9750;BME280;4914;43.218;27.908;2023-01-28T06:17:12;100340.09;;;2.07;100.00
9750;BME280;4914;43.218;27.908;2023-01-28T06:19:39;100356.34;;;2.15;100.00
9750;BME280;4914;43.218;27.908;2023-01-28T06:22:06;100354.00;;;2.09;100.00
9750;BME280;4914;43.218;27.908;2023-01-28T06:24:34;100362.31;;;2.17;100.00
9750;BME280;4914;43.218;27.908;2023-01-28T06:27:01;100353.41;;;2.21;100.00
9750;BME280;4914;43.218;27.908;2023-01-28T06:29:28;100347.84;;;2.10;100.00
9750;BME280;4914;43.218;27.908;2023-01-28T06:31:55;100347.97;;;2.07;100.00
9750;BME280;4914;43.218;27.908;2023-01-28T06:34:22;100354.00;;;2.09;100.00
9750;BME280;4914;43.218;27.908;2023-01-28T06:36:49;100361.22;;;2.04;100.00
9750;BME280;4914;43.218;27.908;2023-01-28T06:39:17;100359.28;;;2.07;100.00
9750;BME280;4914;43.218;27.908;2023-01-28T06:41:47;100365.53;;;2.24;100.00
9750;BME280;4914;43.218;27.908;2023-01-28T06:44:14;100366.28;;;2.07;100.00
9750;BME280;4914;43.218;27.908;2023-01-28T06:46:41;100376.56;;;2.11;100.00
9750;BME280;4914;43.218;27.908;2023-01-28T06:49:08;100380.03;;;2.12;100.00
9750;BME280;4914;43.218;27.908;2023-01-28T06:51:35;100382.59;;;2.13;100.00
9750;BME280;4914;43.218;27.908;2023-01-28T06:54:02;100384.28;;;2.14;100.00
9750;BME280;4914;43.218;27.908;2023-01-28T06:56:29;100390.00;;;2.23;100.00
9750;BME280;4914;43.218;27.908;2023-01-28T06:59:14;100390.16;;;2.19;100.00
9750;BME280;4914;43.218;27.908;2023-01-28T07:01:41;100392.63;;;2.23;100.00
9750;BME280;4914;43.218;27.908;2023-01-28T07:04:08;100392.69;;;2.21;100.00
9750;BME280;4914;43.218;27.908;2023-01-28T07:06:35;100403.03;;;2.24;100.00
9750;BME280;4914;43.218;27.908;2023-01-28T07:09:02;100401.19;;;2.26;100.00
9750;BME280;4914;43.218;27.908;2023-01-28T07:11:29;100405.38;;;2.30;100.00
9750;BME280;4914;43.218;27.908;2023-01-28T07:13:56;100406.41;;;2.26;100.00
9750;BME280;4914;43.218;27.908;2023-01-28T07:16:24;100406.72;;;2.20;100.00
9750;BME280;4914;43.218;27.908;2023-01-28T07:18:51;100425.75;;;2.42;100.00
9750;BME280;4914;43.218;27.908;2023-01-28T07:21:18;100425.78;;;2.78;100.00
9750;BME280;4914;43.218;27.908;2023-01-28T07:23:45;100432.63;;;2.63;100.00
9750;BME280;4914;43.218;27.908;2023-01-28T07:26:12;100422.47;;;2.75;100.00
9750;BME280;4914;43.218;27.908;2023-01-28T07:28:39;100439.47;;;2.66;100.00
9750;BME280;4914;43.218;27.908;2023-01-28T07:31:06;100432.94;;;2.75;100.00
9750;BME280;4914;43.218;27.908;2023-01-28T07:33:35;100422.75;;;2.50;100.00
9750;BME280;4914;43.218;27.908;2023-01-28T07:36:01;100430.06;;;2.62;100.00
9750;BME280;4914;43.218;27.908;2023-01-28T07:38:28;100432.03;;;2.76;100.00
9750;BME280;4914;43.218;27.908;2023-01-28T07:40:55;100429.34;;;2.77;100.00
9750;BME280;4914;43.218;27.908;2023-01-28T07:43:22;100430.31;;;2.75;100.00
9750;BME280;4914;43.218;27.908;2023-01-28T07:45:49;100434.44;;;2.80;100.00
9750;BME280;4914;43.218;27.908;2023-01-28T07:48:15;100430.72;;;2.84;100.00
9750;BME280;4914;43.218;27.908;2023-01-28T07:50:44;100426.75;;;2.94;100.00
9750;BME280;4914;43.218;27.908;2023-01-28T07:53:13;100427.19;;;3.02;100.00
9750;BME280;4914;43.218;27.908;2023-01-28T07:55:39;100439.91;;;2.93;100.00
9750;BME280;4914;43.218;27.908;2023-01-28T07:58:07;100453.81;;;2.95;100.00
9750;BME280;4914;43.218;27.908;2023-01-28T08:00:35;100437.09;;;2.79;100.00
9750;BME280;4914;43.218;27.908;2023-01-28T08:03:05;100443.06;;;2.82;100.00
9750;BME280;4914;43.218;27.908;2023-01-28T08:05:37;100435.00;;;2.87;100.00
9750;BME280;4914;43.218;27.908;2023-01-28T08:08:07;100450.22;;;3.15;100.00
9750;BME280;4914;43.218;27.908;2023-01-28T08:10:35;100451.59;;;3.04;100.00
9750;BME280;4914;43.218;27.908;2023-01-28T08:13:02;100457.53;;;3.08;100.00
9750;BME280;4914;43.218;27.908;2023-01-28T08:15:29;100458.81;;;3.35;100.00
9750;BME280;4914;43.218;27.908;2023-01-28T08:17:57;100471.25;;;3.49;100.00
9750;BME280;4914;43.218;27.908;2023-01-28T08:20:26;100476.41;;;3.50;100.00
9750;BME280;4914;43.218;27.908;2023-01-28T08:23:02;100480.59;;;3.55;100.00
9750;BME280;4914;43.218;27.908;2023-01-28T08:25:32;100492.63;;;3.59;100.00
9750;BME280;4914;43.218;27.908;2023-01-28T08:27:59;100491.38;;;3.48;100.00
9750;BME280;4914;43.218;27.908;2023-01-28T08:30:26;100492.28;;;3.65;100.00
9750;BME280;4914;43.218;27.908;2023-01-28T08:32:54;100490.75;;;3.61;100.00
9750;BME280;4914;43.218;27.908;2023-01-28T08:35:21;100506.03;;;3.53;100.00
9750;BME280;4914;43.218;27.908;2023-01-28T08:37:48;100513.06;;;3.52;100.00
9750;BME280;4914;43.218;27.908;2023-01-28T08:40:15;100516.84;;;3.29;100.00
9750;BME280;4914;43.218;27.908;2023-01-28T08:42:47;100507.47;;;3.24;100.00
9750;BME280;4914;43.218;27.908;2023-01-28T08:45:14;100507.38;;;3.08;100.00
9750;BME280;4914;43.218;27.908;2023-01-28T08:47:48;100510.78;;;3.10;100.00
9750;BME280;4914;43.218;27.908;2023-01-28T08:50:16;100513.34;;;2.93;100.00
9750;BME280;4914;43.218;27.908;2023-01-28T08:52:43;100506.72;;;3.03;100.00
9750;BME280;4914;43.218;27.908;2023-01-28T08:55:10;100507.13;;;2.95;100.00
9750;BME280;4914;43.218;27.908;2023-01-28T08:57:37;100506.28;;;3.12;100.00
9750;BME280;4914;43.218;27.908;2023-01-28T09:00:07;100509.34;;;3.03;100.00
9750;BME280;4914;43.218;27.908;2023-01-28T09:02:35;100506.53;;;2.89;100.00
9750;BME280;4914;43.218;27.908;2023-01-28T09:05:02;100513.75;;;3.02;100.00
9750;BME280;4914;43.218;27.908;2023-01-28T09:07:29;100492.41;;;3.10;100.00
9750;BME280;4914;43.218;27.908;2023-01-28T09:09:56;100502.28;;;3.05;100.00
9750;BME280;4914;43.218;27.908;2023-01-28T09:12:23;100497.44;;;3.15;100.00
9750;BME280;4914;43.218;27.908;2023-01-28T09:14:50;100505.06;;;3.02;100.00
9750;BME280;4914;43.218;27.908;2023-01-28T09:17:18;100522.53;;;3.20;100.00
9750;BME280;4914;43.218;27.908;2023-01-28T09:19:45;100504.09;;;3.03;100.00
9750;BME280;4914;43.218;27.908;2023-01-28T09:22:12;100513.50;;;2.90;100.00
9750;BME280;4914;43.218;27.908;2023-01-28T09:24:39;100514.59;;;3.03;100.00
9750;BME280;4914;43.218;27.908;2023-01-28T09:27:06;100516.75;;;2.95;100.00
9750;BME280;4914;43.218;27.908;2023-01-28T09:29:33;100513.91;;;2.99;100.00
9750;BME280;4914;43.218;27.908;2023-01-28T09:31:59;100521.06;;;3.32;100.00
9750;BME280;4914;43.218;27.908;2023-01-28T09:34:28;100530.31;;;3.22;100.00
9750;BME280;4914;43.218;27.908;2023-01-28T09:36:55;100532.75;;;3.07;100.00
9750;BME280;4914;43.218;27.908;2023-01-28T09:39:22;100539.22;;;3.00;100.00
9750;BME280;4914;43.218;27.908;2023-01-28T09:41:56;100537.25;;;2.87;100.00
9750;BME280;4914;43.218;27.908;2023-01-28T09:44:36;100540.53;;;3.09;100.00
9750;BME280;4914;43.218;27.908;2023-01-28T09:47:14;100529.47;;;3.02;100.00
9750;BME280;4914;43.218;27.908;2023-01-28T09:49:47;100539.72;;;2.90;100.00
9750;BME280;4914;43.218;27.908;2023-01-28T09:52:17;100528.25;;;2.92;100.00
9750;BME280;4914;43.218;27.908;2023-01-28T09:54:47;100527.41;;;2.92;100.00
9750;BME280;4914;43.218;27.908;2023-01-28T09:57:19;100518.00;;;3.05;100.00
9750;BME280;4914;43.218;27.908;2023-01-28T09:59:47;100518.22;;;3.00;100.00
9750;BME280;4914;43.218;27.908;2023-01-28T10:02:26;100515.22;;;3.08;100.00
9750;BME280;4914;43.218;27.908;2023-01-28T10:05:04;100509.25;;;3.23;100.00
9750;BME280;4914;43.218;27.908;2023-01-28T10:07:42;100509.13;;;3.43;100.00
9750;BME280;4914;43.218;27.908;2023-01-28T10:10:16;100501.88;;;3.48;100.00
9750;BME280;4914;43.218;27.908;2023-01-28T10:12:57;100501.41;;;3.75;100.00
9750;BME280;4914;43.218;27.908;2023-01-28T10:16:01;100487.66;;;3.87;100.00
9750;BME280;4914;43.218;27.908;2023-01-28T10:18:34;100497.19;;;3.72;100.00
9750;BME280;4914;43.218;27.908;2023-01-28T10:21:12;100506.13;;;3.51;100.00
9750;BME280;4914;43.218;27.908;2023-01-28T10:23:47;100511.75;;;3.43;100.00
9750;BME280;4914;43.218;27.908;2023-01-28T10:26:21;100508.22;;;3.44;100.00
9750;BME280;4914;43.218;27.908;2023-01-28T10:28:53;100496.63;;;3.66;100.00
9750;BME280;4914;43.218;27.908;2023-01-28T10:31:22;100504.03;;;3.75;100.00
9750;BME280;4914;43.218;27.908;2023-01-28T10:33:50;100511.47;;;3.67;100.00
9750;BME280;4914;43.218;27.908;2023-01-28T10:36:18;100497.72;;;3.44;100.00
9750;BME280;4914;43.218;27.908;2023-01-28T10:38:45;100504.50;;;3.48;100.00
9750;BME280;4914;43.218;27.908;2023-01-28T10:41:16;100504.88;;;3.41;100.00
9750;BME280;4914;43.218;27.908;2023-01-28T10:43:46;100503.31;;;3.37;100.00
9750;BME280;4914;43.218;27.908;2023-01-28T10:46:15;100510.16;;;3.22;100.00
9750;BME280;4914;43.218;27.908;2023-01-28T10:48:45;100509.59;;;3.34;100.00
9750;BME280;4914;43.218;27.908;2023-01-28T10:51:14;100507.25;;;3.45;100.00
9750;BME280;4914;43.218;27.908;2023-01-28T10:53:44;100508.97;;;3.46;100.00
9750;BME280;4914;43.218;27.908;2023-01-28T10:56:14;100512.56;;;3.27;100.00
9750;BME280;4914;43.218;27.908;2023-01-28T10:58:55;100520.00;;;3.36;100.00
9750;BME280;4914;43.218;27.908;2023-01-28T11:01:24;100520.84;;;3.36;100.00
9750;BME280;4914;43.218;27.908;2023-01-28T11:03:53;100535.31;;;3.26;100.00
9750;BME280;4914;43.218;27.908;2023-01-28T11:06:25;100531.94;;;3.24;100.00
9750;BME280;4914;43.218;27.908;2023-01-28T11:08:54;100527.91;;;3.17;100.00
9750;BME280;4914;43.218;27.908;2023-01-28T11:11:24;100533.91;;;3.02;100.00
9750;BME280;4914;43.218;27.908;2023-01-28T11:13:52;100536.81;;;2.77;100.00
9750;BME280;4914;43.218;27.908;2023-01-28T11:16:23;100536.59;;;2.82;100.00
9750;BME280;4914;43.218;27.908;2023-01-28T11:18:53;100539.72;;;2.90;100.00
9750;BME280;4914;43.218;27.908;2023-01-28T11:21:21;100548.28;;;2.75;100.00
9750;BME280;4914;43.218;27.908;2023-01-28T11:23:52;100551.13;;;2.70;100.00
9750;BME280;4914;43.218;27.908;2023-01-28T11:26:23;100546.25;;;2.62;100.00
9750;BME280;4914;43.218;27.908;2023-01-28T11:28:51;100544.09;;;2.52;100.00
9750;BME280;4914;43.218;27.908;2023-01-28T11:31:21;100550.13;;;2.54;100.00
9750;BME280;4914;43.218;27.908;2023-01-28T11:33:50;100540.69;;;2.69;100.00
9750;BME280;4914;43.218;27.908;2023-01-28T11:36:20;100536.47;;;2.66;100.00
9750;BME280;4914;43.218;27.908;2023-01-28T11:38:49;100542.28;;;2.73;100.00
9750;BME280;4914;43.218;27.908;2023-01-28T11:41:16;100536.03;;;2.75;100.00
9750;BME280;4914;43.218;27.908;2023-01-28T11:43:45;100546.66;;;2.72;100.00
9750;BME280;4914;43.218;27.908;2023-01-28T11:49:13;100536.66;;;2.61;100.00
9750;BME280;4914;43.218;27.908;2023-01-28T11:51:51;100536.44;;;2.47;100.00
9750;BME280;4914;43.218;27.908;2023-01-28T11:54:32;100541.41;;;2.53;100.00
9750;BME280;4914;43.218;27.908;2023-01-28T11:57:16;100548.63;;;2.48;100.00
9750;BME280;4914;43.218;27.908;2023-01-28T12:00:08;100545.47;;;2.40;100.00
9750;BME280;4914;43.218;27.908;2023-01-28T12:02:47;100552.66;;;2.55;100.00
9750;BME280;4914;43.218;27.908;2023-01-28T12:05:42;100555.00;;;2.61;100.00
9750;BME280;4914;43.218;27.908;2023-01-28T12:08:19;100557.78;;;2.58;100.00
9750;BME280;4914;43.218;27.908;2023-01-28T12:11:01;100559.97;;;2.68;100.00
9750;BME280;4914;43.218;27.908;2023-01-28T12:13:42;100565.22;;;2.68;100.00
9750;BME280;4914;43.218;27.908;2023-01-28T12:16:21;100559.13;;;2.67;100.00
9750;BME280;4914;43.218;27.908;2023-01-28T12:22:07;100570.47;;;2.68;100.00
9750;BME280;4914;43.218;27.908;2023-01-28T12:24:47;100576.91;;;2.60;100.00
9750;BME280;4914;43.218;27.908;2023-01-28T12:27:29;100575.56;;;2.71;100.00
9750;BME280;4914;43.218;27.908;2023-01-28T12:30:07;100582.28;;;2.57;100.00
9750;BME280;4914;43.218;27.908;2023-01-28T12:32:47;100574.63;;;2.53;100.00
9750;BME280;4914;43.218;27.908;2023-01-28T12:35:29;100576.69;;;2.65;100.00
9750;BME280;4914;43.218;27.908;2023-01-28T12:38:08;100574.53;;;2.54;100.00
9750;BME280;4914;43.218;27.908;2023-01-28T12:40:52;100589.25;;;2.38;100.00
9750;BME280;4914;43.218;27.908;2023-01-28T12:43:26;100577.38;;;2.50;100.00
9750;BME280;4914;43.218;27.908;2023-01-28T12:46:02;100587.38;;;2.60;100.00
9750;BME280;4914;43.218;27.908;2023-01-28T12:48:36;100594.38;;;2.60;100.00
9750;BME280;4914;43.218;27.908;2023-01-28T12:51:09;100589.72;;;2.67;100.00
9750;BME280;4914;43.218;27.908;2023-01-28T12:53:41;100594.38;;;2.60;100.00
9750;BME280;4914;43.218;27.908;2023-01-28T12:56:14;100598.78;;;2.59;100.00
9750;BME280;4914;43.218;27.908;2023-01-28T12:58:47;100609.56;;;2.53;100.00
9750;BME280;4914;43.218;27.908;2023-01-28T13:01:20;100612.56;;;2.44;100.00
9750;BME280;4914;43.218;27.908;2023-01-28T13:03:55;100617.63;;;2.49;100.00
9750;BME280;4914;43.218;27.908;2023-01-28T13:06:29;100621.00;;;2.51;100.00
9750;BME280;4914;43.218;27.908;2023-01-28T13:08:59;100628.66;;;2.55;100.00
9750;BME280;4914;43.218;27.908;2023-01-28T13:11:32;100623.31;;;2.58;100.00
9750;BME280;4914;43.218;27.908;2023-01-28T13:14:01;100636.41;;;2.58;100.00
9750;BME280;4914;43.218;27.908;2023-01-28T13:16:28;100636.88;;;2.48;100.00
9750;BME280;4914;43.218;27.908;2023-01-28T13:19:06;100630.78;;;2.47;100.00
9750;BME280;4914;43.218;27.908;2023-01-28T13:21:35;100643.63;;;2.33;100.00
9750;BME280;4914;43.218;27.908;2023-01-28T13:24:05;100646.91;;;2.38;100.00
9750;BME280;4914;43.218;27.908;2023-01-28T13:26:40;100653.84;;;2.39;100.00